Time;durP1;ratioP1;P1;durP2;ratioP2;P2;SDS_P1;SDS_P2;PMS_P1;PMS_P2;Temp;Humidity;BMP_temperature;BMP_pressure;BME280_temperature;BME280_humidity;BME280_pressure;Samples;Min_cycle;Max_cycle;Signal;HPM_P1;HPM_P2
2023/05/22 00:00:31;;;;;;;39.05;25.75;;;19.50;99.90;;;;;;5014270;28;20117;-77
2023/05/22 00:02:57;;;;;;;41.90;26.42;;;19.60;99.90;;;;;;5013992;28;20030;-78
2023/05/22 00:05:23;;;;;;;36.85;25.08;;;19.50;99.90;;;;;;5015406;28;20116;-79
2023/05/22 00:07:49;;;;;;;37.90;25.15;;;19.50;99.90;;;;;;4995058;28;20250;-76
2023/05/22 00:10:14;;;;;;;39.28;24.67;;;19.50;99.90;;;;;;5021190;28;20081;-76
2023/05/22 00:12:40;;;;;;;41.65;27.65;;;19.50;99.90;;;;;;5018213;28;20059;-77
2023/05/22 00:15:06;;;;;;;43.35;26.83;;;19.40;99.90;;;;;;5013036;28;20582;-75
2023/05/22 00:17:32;;;;;;;42.45;26.25;;;19.30;99.90;;;;;;5018047;28;20025;-78
2023/05/22 00:20:09;;;;;;;43.60;26.63;;;19.30;99.90;;;;;;5013698;28;20026;-76
2023/05/22 00:22:36;;;;;;;42.20;26.58;;;19.30;99.90;;;;;;5014058;28;20209;-76
2023/05/22 00:25:07;;;;;;;44.42;26.10;;;19.20;99.90;;;;;;5015228;28;20097;-77
2023/05/22 00:27:33;;;;;;;47.15;27.40;;;19.20;99.90;;;;;;4995433;28;20069;-76
2023/05/22 00:30:01;;;;;;;43.85;27.73;;;19.30;99.90;;;;;;5012592;28;20524;-76
2023/05/22 00:32:26;;;;;;;40.72;27.05;;;19.30;99.90;;;;;;4995334;28;20112;-78
2023/05/22 00:34:52;;;;;;;40.97;26.23;;;19.20;99.90;;;;;;5015830;28;20100;-76
2023/05/22 00:37:21;;;;;;;45.55;27.20;;;19.30;99.90;;;;;;4996424;28;20079;-76
2023/05/22 00:39:51;;;;;;;39.78;25.90;;;19.20;99.90;;;;;;4997593;28;20024;-76
2023/05/22 00:42:17;;;;;;;41.78;26.27;;;19.30;99.90;;;;;;4996708;28;20064;-75
2023/05/22 00:44:43;;;;;;;41.00;26.73;;;19.20;99.90;;;;;;4996224;28;20040;-76
2023/05/22 00:47:08;;;;;;;45.55;27.08;;;19.20;99.90;;;;;;5012328;28;20021;-75
2023/05/22 00:49:34;;;;;;;40.72;26.13;;;19.20;99.90;;;;;;5014386;28;20028;-75
2023/05/22 00:52:02;;;;;;;43.85;26.67;;;19.30;99.90;;;;;;5012338;28;20033;-76
2023/05/22 00:54:30;;;;;;;44.97;26.73;;;19.20;99.90;;;;;;5014581;28;20049;-76
2023/05/22 00:56:56;;;;;;;43.33;27.05;;;19.30;99.90;;;;;;4993457;28;20033;-76
2023/05/22 00:59:22;;;;;;;42.00;28.52;;;19.30;99.90;;;;;;5012809;28;20014;-77
2023/05/22 01:01:48;;;;;;;44.15;27.55;;;19.20;99.90;;;;;;5015213;28;20045;-75
2023/05/22 01:04:14;;;;;;;47.92;30.58;;;19.10;99.90;;;;;;4998598;28;20022;-76
2023/05/22 01:06:45;;;;;;;45.08;28.50;;;19.20;99.90;;;;;;5014792;28;20429;-76
2023/05/22 01:09:10;;;;;;;45.40;28.52;;;19.10;99.90;;;;;;4996227;28;20021;-76
2023/05/22 01:11:59;;;;;;;47.05;28.98;;;19.00;99.90;;;;;;5014392;28;20021;-76
2023/05/22 01:14:37;;;;;;;45.25;29.30;;;19.10;99.90;;;;;;5017944;28;20014;-76
2023/05/22 01:17:27;;;;;;;43.72;28.15;;;19.00;99.90;;;;;;4996198;28;20373;-77
2023/05/22 01:20:25;;;;;;;46.10;28.05;;;19.00;99.90;;;;;;5005202;28;20040;-85
2023/05/22 01:23:24;;;;;;;49.95;26.83;;;18.90;99.90;;;;;;5014651;28;20038;-87
2023/05/22 01:26:20;;;;;;;40.45;25.90;;;19.00;99.90;;;;;;5024449;28;20116;-84
2023/05/22 01:29:14;;;;;;;42.28;27.80;;;19.00;99.90;;;;;;5011418;28;20060;-85
2023/05/22 01:31:42;;;;;;;42.83;25.77;;;19.00;99.90;;;;;;5006980;28;20020;-84
2023/05/22 01:34:11;;;;;;;40.53;26.90;;;19.00;99.90;;;;;;5024350;28;20044;-82
2023/05/22 01:36:37;;;;;;;42.22;25.73;;;19.00;99.90;;;;;;5007379;28;20017;-79
2023/05/22 01:39:05;;;;;;;42.28;25.23;;;19.00;99.90;;;;;;5020137;28;20162;-84
2023/05/22 01:41:34;;;;;;;41.00;24.17;;;18.90;99.90;;;;;;5018640;28;20035;-84
2023/05/22 01:44:01;;;;;;;35.67;24.17;;;19.00;99.90;;;;;;5002803;28;20056;-86
2023/05/22 01:46:28;;;;;;;41.00;23.75;;;19.00;99.90;;;;;;5022722;28;20108;-84
2023/05/22 01:48:53;;;;;;;36.67;23.13;;;18.90;99.90;;;;;;5022061;28;20503;-87
2023/05/22 01:51:24;;;;;;;35.33;22.63;;;18.90;99.90;;;;;;5022868;28;20010;-83
2023/05/22 01:54:04;;;;;;;34.85;22.75;;;18.90;99.90;;;;;;5019515;28;20030;-85
2023/05/22 01:56:43;;;;;;;34.08;21.48;;;19.00;99.90;;;;;;5003546;28;20347;-76
2023/05/22 01:59:24;;;;;;;38.00;21.45;;;19.10;99.90;;;;;;5016691;28;20025;-87
2023/05/22 02:01:53;;;;;;;32.95;21.48;;;19.00;99.90;;;;;;5019936;28;20167;-86
2023/05/22 02:04:24;;;;;;;36.75;21.20;;;19.00;99.90;;;;;;5020033;28;20036;-86
2023/05/22 02:06:52;;;;;;;28.70;20.20;;;19.00;99.90;;;;;;5019673;28;20021;-84
2023/05/22 02:09:20;;;;;;;33.38;20.25;;;19.00;99.90;;;;;;5000706;28;20030;-84
2023/05/22 02:11:47;;;;;;;35.53;20.63;;;19.10;99.90;;;;;;5018584;28;20024;-87
2023/05/22 02:14:12;;;;;;;31.60;21.10;;;19.10;99.90;;;;;;5019717;28;20437;-85
2023/05/22 02:16:39;;;;;;;31.90;21.50;;;19.00;99.90;;;;;;5018492;28;20100;-84
2023/05/22 02:19:04;;;;;;;30.60;20.00;;;19.00;99.90;;;;;;4998019;28;20029;-85
2023/05/22 02:21:34;;;;;;;29.27;20.35;;;19.00;99.90;;;;;;5020634;28;20028;-86
2023/05/22 02:24:00;;;;;;;33.42;22.08;;;18.90;99.90;;;;;;4996294;28;20079;-85
2023/05/22 02:26:25;;;;;;;33.20;21.83;;;19.00;99.90;;;;;;5021421;28;20048;-86
2023/05/22 02:28:52;;;;;;;33.22;21.23;;;19.00;99.90;;;;;;5024748;28;20075;-79
2023/05/22 02:31:17;;;;;;;37.47;23.40;;;18.90;99.90;;;;;;5024811;28;20269;-84
2023/05/22 02:33:43;;;;;;;32.20;22.42;;;18.90;99.90;;;;;;5005560;28;20025;-84
2023/05/22 02:36:11;;;;;;;31.38;21.42;;;18.90;99.90;;;;;;4995493;28;20026;-87
2023/05/22 02:38:38;;;;;;;30.00;21.20;;;18.90;99.90;;;;;;5021039;28;20564;-82
2023/05/22 02:41:04;;;;;;;33.47;21.60;;;18.80;99.90;;;;;;5134187;22;21064;-75
2023/05/22 02:43:30;;;;;;;31.83;22.13;;;18.80;99.90;;;;;;4995119;28;20052;-75
2023/05/22 02:45:55;;;;;;;34.03;22.13;;;18.80;99.90;;;;;;5013628;28;20520;-75
2023/05/22 02:48:21;;;;;;;32.17;20.80;;;18.80;99.90;;;;;;5011286;28;20026;-77
2023/05/22 02:50:49;;;;;;;32.67;21.50;;;18.80;99.90;;;;;;4991965;28;20025;-75
2023/05/22 02:53:15;;;;;;;34.63;22.20;;;18.70;99.90;;;;;;4989724;28;20145;-75
2023/05/22 02:55:42;;;;;;;32.60;22.20;;;18.80;99.90;;;;;;5011313;28;20655;-75
2023/05/22 02:58:10;;;;;;;37.70;23.20;;;18.80;99.90;;;;;;5010489;28;20078;-75
2023/05/22 03:00:39;;;;;;;33.95;22.33;;;18.80;99.90;;;;;;4994320;28;20074;-75
2023/05/22 03:03:05;;;;;;;34.28;23.45;;;18.80;99.90;;;;;;5011943;28;20472;-75
2023/05/22 03:05:31;;;;;;;38.13;23.30;;;18.80;99.90;;;;;;4990584;28;20013;-75
2023/05/22 03:07:58;;;;;;;34.97;22.42;;;18.80;99.90;;;;;;4989749;28;20493;-75
2023/05/22 03:10:23;;;;;;;34.88;23.98;;;18.80;99.90;;;;;;5012458;28;20503;-75
2023/05/22 03:12:52;;;;;;;41.08;26.45;;;18.90;99.90;;;;;;5013150;28;20029;-75
2023/05/22 03:15:18;;;;;;;38.05;23.58;;;18.80;99.90;;;;;;5012408;28;20029;-83
2023/05/22 03:17:46;;;;;;;38.03;23.92;;;18.90;99.90;;;;;;4994585;28;20021;-75
2023/05/22 03:20:15;;;;;;;37.70;23.85;;;19.00;99.90;;;;;;5011946;28;20178;-76
2023/05/22 03:22:50;;;;;;;37.35;23.77;;;19.00;99.90;;;;;;4997071;28;20065;-76
2023/05/22 03:25:15;;;;;;;31.92;22.92;;;19.00;99.90;;;;;;5004921;28;20033;-85
2023/05/22 03:27:43;;;;;;;39.20;24.15;;;19.00;99.90;;;;;;5018459;28;20091;-83
2023/05/22 03:30:09;;;;;;;38.47;24.35;;;19.00;99.90;;;;;;5015291;28;20047;-86
2023/05/22 03:32:36;;;;;;;37.55;23.25;;;19.00;99.90;;;;;;5015092;28;21120;-75
2023/05/22 03:35:03;;;;;;;38.85;23.33;;;19.10;99.90;;;;;;4995175;28;20749;-75
2023/05/22 03:37:28;;;;;;;39.90;23.42;;;19.10;99.90;;;;;;5012124;28;20530;-75
2023/05/22 03:39:54;;;;;;;35.65;23.80;;;19.00;99.90;;;;;;4996637;28;20787;-86
2023/05/22 03:42:22;;;;;;;39.58;25.45;;;19.00;99.90;;;;;;5015535;28;20038;-82
2023/05/22 03:44:48;;;;;;;36.25;23.48;;;19.00;99.90;;;;;;5010886;28;20033;-86
2023/05/22 03:47:14;;;;;;;34.58;23.92;;;19.00;99.90;;;;;;5012597;28;20049;-83
2023/05/22 03:49:42;;;;;;;33.00;23.45;;;18.90;99.90;;;;;;5009892;28;20389;-75
2023/05/22 03:52:11;;;;;;;35.53;24.10;;;18.90;99.90;;;;;;5012723;28;20209;-75
2023/05/22 03:54:37;;;;;;;40.38;24.35;;;18.90;99.90;;;;;;5011840;28;20057;-84
2023/05/22 03:57:02;;;;;;;40.13;23.92;;;18.80;99.90;;;;;;5010995;28;20440;-75
2023/05/22 03:59:28;;;;;;;38.83;23.95;;;18.80;99.90;;;;;;4994388;28;20722;-75
2023/05/22 04:01:56;;;;;;;34.17;22.95;;;18.80;99.90;;;;;;5013525;28;20489;-85
2023/05/22 04:04:25;;;;;;;38.65;24.27;;;18.80;99.90;;;;;;5011728;28;20037;-76
2023/05/22 04:06:51;;;;;;;36.92;24.60;;;18.70;99.90;;;;;;5011949;28;20029;-84
2023/05/22 04:09:18;;;;;;;36.30;24.45;;;18.80;99.90;;;;;;5014263;28;20033;-86
2023/05/22 04:11:45;;;;;;;35.50;22.90;;;18.70;99.90;;;;;;4997495;28;20793;-85
2023/05/22 04:14:11;;;;;;;38.65;23.92;;;18.70;99.90;;;;;;5013902;28;20029;-87
2023/05/22 04:16:36;;;;;;;35.75;23.35;;;18.70;99.90;;;;;;5015173;28;20036;-86
2023/05/22 04:19:02;;;;;;;36.25;23.73;;;18.70;99.90;;;;;;5012946;28;20014;-85
2023/05/22 04:21:34;;;;;;;35.38;23.85;;;18.70;99.90;;;;;;5012934;28;20071;-80
2023/05/22 04:24:01;;;;;;;37.73;24.93;;;18.80;99.90;;;;;;5014480;28;20025;-82
2023/05/22 04:26:31;;;;;;;39.80;24.92;;;18.80;99.90;;;;;;5013294;28;20025;-84
2023/05/22 04:28:56;;;;;;;37.08;24.20;;;18.80;99.90;;;;;;4993179;28;20021;-85
2023/05/22 04:31:22;;;;;;;37.17;24.90;;;18.80;99.90;;;;;;4992832;28;20034;-87
2023/05/22 04:33:48;;;;;;;39.25;24.60;;;18.70;99.90;;;;;;5010435;28;20068;-75
2023/05/22 04:36:14;;;;;;;36.95;24.83;;;18.70;99.90;;;;;;5010932;28;20052;-75
2023/05/22 04:38:43;;;;;;;35.45;23.85;;;18.80;99.90;;;;;;4996085;28;20022;-75
2023/05/22 04:41:10;;;;;;;38.83;24.80;;;18.80;99.90;;;;;;5008215;28;20052;-76
2023/05/22 04:43:37;;;;;;;41.63;24.95;;;18.80;99.90;;;;;;5010979;28;20465;-75
2023/05/22 04:46:07;;;;;;;36.75;24.98;;;18.80;99.90;;;;;;5009343;28;20099;-76
2023/05/22 04:48:32;;;;;;;41.30;26.10;;;18.80;99.90;;;;;;5008273;28;20458;-75
2023/05/22 04:51:01;;;;;;;42.70;26.58;;;18.80;99.90;;;;;;5005907;28;20453;-76
2023/05/22 04:53:27;;;;;;;39.42;26.30;;;18.80;99.90;;;;;;5002056;28;20036;-75
2023/05/22 04:55:53;;;;;;;41.92;26.90;;;18.80;99.90;;;;;;4993177;28;20423;-77
2023/05/22 04:58:19;;;;;;;37.97;26.25;;;18.80;99.90;;;;;;5008829;28;20030;-75
2023/05/22 05:00:44;;;;;;;42.15;27.90;;;18.90;99.90;;;;;;5008636;28;20959;-75
2023/05/22 05:03:10;;;;;;;47.90;29.40;;;18.90;99.90;;;;;;5007799;28;20053;-76
2023/05/22 05:05:36;;;;;;;39.80;26.42;;;19.00;99.90;;;;;;5009925;28;20035;-75
2023/05/22 05:08:02;;;;;;;39.20;25.88;;;19.00;99.90;;;;;;5012646;28;20022;-84
2023/05/22 05:10:27;;;;;;;38.47;25.67;;;19.00;99.90;;;;;;5009986;28;20028;-75
2023/05/22 05:12:53;;;;;;;39.95;27.05;;;18.90;99.90;;;;;;4989063;28;20560;-75
2023/05/22 05:15:19;;;;;;;41.13;26.00;;;18.90;99.90;;;;;;4988204;28;20091;-78
2023/05/22 05:17:45;;;;;;;43.65;28.30;;;19.00;99.90;;;;;;4986846;28;20120;-75
2023/05/22 05:20:13;;;;;;;40.13;26.73;;;19.10;99.90;;;;;;5009487;28;20033;-76
2023/05/22 05:22:39;;;;;;;40.67;26.52;;;19.20;99.90;;;;;;5009071;28;20025;-75
2023/05/22 05:25:06;;;;;;;43.97;27.63;;;19.20;99.90;;;;;;5011136;28;20035;-76
2023/05/22 05:27:31;;;;;;;43.45;27.35;;;19.20;99.90;;;;;;4992774;28;20029;-77
2023/05/22 05:29:57;;;;;;;41.70;26.67;;;19.20;99.90;;;;;;5009252;28;20037;-77
2023/05/22 05:32:23;;;;;;;39.80;27.00;;;19.30;99.90;;;;;;4993377;28;20032;-76
2023/05/22 05:34:49;;;;;;;40.40;27.70;;;19.30;99.90;;;;;;4992123;28;20105;-78
2023/05/22 05:37:15;;;;;;;47.67;29.02;;;19.40;99.90;;;;;;5007429;28;21482;-78
2023/05/22 05:39:40;;;;;;;45.38;26.75;;;19.40;99.90;;;;;;5008175;28;20025;-76
2023/05/22 05:42:06;;;;;;;44.33;28.17;;;19.40;99.90;;;;;;5007996;28;20693;-79
2023/05/22 05:44:31;;;;;;;45.30;26.92;;;19.40;99.90;;;;;;4992786;28;21253;-76
2023/05/22 05:46:57;;;;;;;38.80;26.70;;;19.50;99.90;;;;;;5009600;28;20107;-76
2023/05/22 05:49:25;;;;;;;40.85;27.30;;;19.70;99.90;;;;;;4992715;28;20064;-76
2023/05/22 05:51:51;;;;;;;43.13;26.25;;;19.80;99.90;;;;;;5008761;28;20015;-77
2023/05/22 05:54:19;;;;;;;43.47;26.88;;;19.90;99.90;;;;;;5009900;28;20041;-75
2023/05/22 05:56:44;;;;;;;44.65;27.38;;;19.90;99.90;;;;;;5014119;28;20022;-75
2023/05/22 05:59:10;;;;;;;45.38;26.77;;;19.90;99.90;;;;;;4991491;28;20443;-76
2023/05/22 06:01:37;;;;;;;39.63;27.27;;;20.00;99.90;;;;;;5011884;28;20029;-75
2023/05/22 06:04:04;;;;;;;42.75;26.70;;;19.90;99.90;;;;;;4995591;28;20301;-75
2023/05/22 06:06:38;;;;;;;38.97;25.90;;;20.10;99.90;;;;;;5012920;28;20403;-78
2023/05/22 06:09:08;;;;;;;37.40;25.70;;;20.30;99.90;;;;;;4989200;28;20466;-76
2023/05/22 06:11:33;;;;;;;37.55;24.20;;;20.30;99.90;;;;;;4988178;28;20037;-76
2023/05/22 06:14:03;;;;;;;38.55;25.75;;;20.20;99.90;;;;;;5011541;28;20036;-78
2023/05/22 06:16:29;;;;;;;40.05;25.60;;;20.30;99.90;;;;;;4994293;28;20334;-76
2023/05/22 06:18:57;;;;;;;34.00;23.90;;;20.40;99.90;;;;;;5014455;28;20041;-76
2023/05/22 06:21:23;;;;;;;33.53;22.75;;;20.50;99.90;;;;;;5010138;28;20569;-77
2023/05/22 06:23:49;;;;;;;37.00;23.95;;;20.60;99.90;;;;;;5013752;28;20088;-76
2023/05/22 06:26:16;;;;;;;36.15;23.73;;;20.70;99.90;;;;;;5012770;28;20030;-76
2023/05/22 06:28:42;;;;;;;38.05;24.33;;;20.80;99.90;;;;;;4995099;28;20032;-76
2023/05/22 06:31:08;;;;;;;33.17;22.73;;;20.90;99.90;;;;;;4994359;28;20331;-76
2023/05/22 06:33:35;;;;;;;38.17;22.75;;;21.00;99.90;;;;;;5011031;28;20053;-76
2023/05/22 06:36:02;;;;;;;37.58;23.20;;;21.00;99.90;;;;;;4991866;28;20376;-76
2023/05/22 06:38:28;;;;;;;39.20;23.90;;;21.10;99.90;;;;;;4992859;28;20053;-76
2023/05/22 06:40:53;;;;;;;40.75;24.77;;;21.10;99.90;;;;;;5012460;28;20053;-77
2023/05/22 06:43:19;;;;;;;40.80;24.88;;;21.10;99.90;;;;;;5012757;28;20132;-76
2023/05/22 06:45:45;;;;;;;47.33;24.98;;;21.10;99.90;;;;;;5014516;28;20101;-76
2023/05/22 06:48:11;;;;;;;42.35;24.55;;;21.10;99.90;;;;;;5010829;28;20450;-76
2023/05/22 06:50:36;;;;;;;35.88;25.08;;;21.10;99.90;;;;;;5013514;28;20421;-78
2023/05/22 06:53:02;;;;;;;36.55;25.15;;;21.20;99.90;;;;;;4998590;28;20456;-76
2023/05/22 06:55:27;;;;;;;43.13;26.67;;;21.10;99.90;;;;;;5010819;28;20109;-75
2023/05/22 06:57:55;;;;;;;39.10;28.20;;;21.10;99.90;;;;;;5010344;28;20034;-78
2023/05/22 07:00:21;;;;;;;44.78;27.17;;;21.20;99.90;;;;;;5012354;28;20068;-77
2023/05/22 07:02:46;;;;;;;37.05;26.40;;;21.20;99.90;;;;;;5011581;28;20079;-78
2023/05/22 07:05:12;;;;;;;42.05;27.30;;;21.20;99.90;;;;;;4994971;28;20724;-76
2023/05/22 07:07:38;;;;;;;38.38;25.83;;;21.30;99.90;;;;;;5013085;28;20044;-75
2023/05/22 07:10:04;;;;;;;42.28;26.98;;;21.20;99.90;;;;;;4994630;28;20753;-78
2023/05/22 07:12:30;;;;;;;39.83;25.83;;;21.20;99.90;;;;;;4993147;28;20025;-76
2023/05/22 07:14:56;;;;;;;32.67;24.10;;;21.40;99.90;;;;;;4992852;28;20025;-76
2023/05/22 07:17:22;;;;;;;36.38;23.80;;;21.50;99.90;;;;;;4992159;28;20156;-76
2023/05/22 07:19:47;;;;;;;39.33;23.55;;;21.60;99.90;;;;;;4989454;28;20105;-78
2023/05/22 07:22:14;;;;;;;37.08;23.92;;;21.60;99.90;;;;;;4993052;28;20033;-78
2023/05/22 07:24:39;;;;;;;34.40;24.83;;;21.60;99.90;;;;;;4994878;28;20033;-78
2023/05/22 07:27:05;;;;;;;37.95;26.25;;;21.70;99.90;;;;;;4994016;28;20429;-77
2023/05/22 07:29:31;;;;;;;39.45;27.63;;;21.80;99.90;;;;;;5011512;28;20026;-78
2023/05/22 07:31:59;;;;;;;48.53;28.95;;;21.80;99.90;;;;;;5011795;28;20476;-78
2023/05/22 07:34:32;;;;;;;45.90;26.15;;;21.80;99.90;;;;;;5009869;28;20033;-78
2023/05/22 07:36:59;;;;;;;36.95;26.55;;;21.80;99.90;;;;;;5010709;28;20440;-78
2023/05/22 07:39:24;;;;;;;37.08;27.05;;;21.90;99.90;;;;;;5010127;28;20037;-78
2023/05/22 07:41:50;;;;;;;39.63;27.33;;;21.90;99.90;;;;;;5009781;28;20087;-78
2023/05/22 07:44:15;;;;;;;46.35;28.50;;;21.90;99.90;;;;;;4988983;28;20017;-77
2023/05/22 07:46:42;;;;;;;39.45;28.63;;;21.90;99.90;;;;;;5012750;28;20024;-77
2023/05/22 07:49:08;;;;;;;44.08;26.65;;;22.10;99.90;;;;;;5010198;28;20029;-79
2023/05/22 07:51:33;;;;;;;37.95;27.02;;;22.10;99.90;;;;;;4995990;28;20032;-79
2023/05/22 07:53:59;;;;;;;38.33;27.83;;;22.10;99.90;;;;;;4987056;28;20094;-78
2023/05/22 07:56:26;;;;;;;39.63;27.58;;;22.10;99.90;;;;;;5010433;28;20045;-78
2023/05/22 07:58:52;;;;;;;39.72;26.45;;;22.00;99.90;;;;;;5011230;28;20816;-78
2023/05/22 08:01:20;;;;;;;41.60;28.42;;;22.10;99.90;;;;;;4992567;28;20037;-78
2023/05/22 08:03:45;;;;;;;39.33;26.15;;;22.20;99.90;;;;;;5010784;28;20660;-78
2023/05/22 08:06:16;;;;;;;48.28;31.05;;;22.40;99.90;;;;;;4992461;28;20084;-79
2023/05/22 08:08:42;;;;;;;46.67;29.88;;;22.70;99.90;;;;;;5008104;28;20029;-78
2023/05/22 08:25:20;;;;;;;44.10;29.48;;;23.20;99.90;;;;;;5013407;28;20658;-79
2023/05/22 08:27:46;;;;;;;42.83;28.65;;;23.50;99.90;;;;;;4984164;28;20037;-79
2023/05/22 08:30:11;;;;;;;42.75;30.50;;;23.20;99.90;;;;;;5008149;28;20086;-79
2023/05/22 08:32:37;;;;;;;42.78;29.95;;;22.90;99.90;;;;;;5008388;28;20071;-78
2023/05/22 08:35:03;;;;;;;42.95;30.75;;;22.50;99.90;;;;;;5008485;28;20021;-79
2023/05/22 08:37:31;;;;;;;46.40;30.92;;;22.50;99.90;;;;;;5010886;28;20354;-79
2023/05/22 08:39:56;;;;;;;43.67;30.80;;;22.60;99.90;;;;;;5006472;28;20026;-79
2023/05/22 08:42:23;;;;;;;47.42;29.85;;;22.70;99.90;;;;;;5009189;28;20356;-79
2023/05/22 08:44:49;;;;;;;41.50;30.58;;;22.60;99.90;;;;;;5008452;28;20029;-77
2023/05/22 08:47:15;;;;;;;42.28;30.77;;;22.80;99.90;;;;;;5007724;28;20370;-80
2023/05/22 08:49:42;;;;;;;47.47;29.70;;;22.80;99.90;;;;;;5010020;28;20079;-77
2023/05/22 08:52:17;;;;;;;45.70;30.73;;;22.90;99.90;;;;;;5009539;28;20492;-77
2023/05/22 08:54:48;;;;;;;42.83;29.63;;;23.00;99.90;;;;;;5009413;28;20033;-76
2023/05/22 08:57:15;;;;;;;43.80;30.67;;;23.20;99.90;;;;;;4981722;28;20432;-80
2023/05/22 08:59:40;;;;;;;40.75;27.58;;;23.50;99.90;;;;;;5008804;28;20029;-77
2023/05/22 09:02:07;;;;;;;43.30;29.42;;;23.50;99.90;;;;;;5012820;28;20029;-78
2023/05/22 09:04:34;;;;;;;40.85;27.98;;;23.90;99.90;;;;;;5009886;28;20033;-78
2023/05/22 09:07:04;;;;;;;39.75;28.30;;;24.20;99.90;;;;;;5010014;28;20095;-80
2023/05/22 09:09:31;;;;;;;78.30;46.53;;;24.20;99.90;;;;;;4986228;28;20296;-77
2023/05/22 09:11:57;;;;;;;84.10;52.88;;;24.20;99.90;;;;;;5006466;28;20326;-76
2023/05/22 09:14:24;;;;;;;39.50;29.27;;;24.50;99.90;;;;;;5006653;28;20029;-78
2023/05/22 09:16:51;;;;;;;39.17;28.13;;;24.70;99.90;;;;;;5010247;28;20412;-78
2023/05/22 09:19:17;;;;;;;41.35;28.48;;;24.90;99.90;;;;;;5010252;28;20029;-79
2023/05/22 09:21:43;;;;;;;36.47;26.88;;;25.20;99.90;;;;;;5009677;28;20045;-78
2023/05/22 09:24:09;;;;;;;38.00;26.45;;;25.20;99.90;;;;;;4993394;28;20405;-79
2023/05/22 09:26:39;;;;;;;39.88;28.45;;;25.30;99.90;;;;;;4990910;28;20113;-78
2023/05/22 09:29:06;;;;;;;39.05;26.80;;;25.60;99.90;;;;;;5006278;28;20018;-80
2023/05/22 09:31:37;;;;;;;35.83;26.85;;;25.70;99.90;;;;;;5009216;28;20037;-79
2023/05/22 09:34:06;;;;;;;37.63;28.38;;;25.80;99.90;;;;;;5007692;28;20132;-80
2023/05/22 09:36:35;;;;;;;34.72;26.75;;;25.90;99.90;;;;;;4995308;28;20032;-80
2023/05/22 09:39:02;;;;;;;35.55;26.92;;;25.90;99.90;;;;;;4994263;28;20224;-78
2023/05/22 09:41:31;;;;;;;36.05;27.95;;;26.00;99.90;;;;;;5012015;28;20041;-80
2023/05/22 09:43:59;;;;;;;39.33;27.38;;;25.90;99.90;;;;;;5012268;28;20029;-79
2023/05/22 09:46:24;;;;;;;35.53;26.52;;;25.70;99.90;;;;;;5010884;28;20029;-76
2023/05/22 09:48:51;;;;;;;39.15;29.08;;;26.20;99.90;;;;;;5011423;28;20091;-79
2023/05/22 09:51:25;;;;;;;35.05;26.92;;;26.70;99.90;;;;;;5012434;28;20029;-79
2023/05/22 09:53:55;;;;;;;36.88;28.45;;;27.20;99.90;;;;;;5011357;28;20021;-79
2023/05/22 09:56:22;;;;;;;38.05;27.40;;;27.50;99.90;;;;;;5009309;28;20022;-78
2023/05/22 09:58:51;;;;;;;39.80;29.08;;;27.40;99.90;;;;;;4995660;28;20033;-79
2023/05/22 10:01:20;;;;;;;38.67;27.45;;;27.10;99.90;;;;;;5013042;28;20030;-81
2023/05/22 10:03:49;;;;;;;39.97;27.52;;;26.90;99.90;;;;;;5014090;28;20044;-78
2023/05/22 10:06:17;;;;;;;41.63;28.75;;;27.20;99.90;;;;;;5013611;28;20045;-80
2023/05/22 10:08:52;;;;;;;39.53;29.13;;;27.00;99.90;;;;;;5010397;28;20313;-81
2023/05/22 10:11:18;;;;;;;38.55;28.38;;;26.70;99.90;;;;;;5009512;28;20040;-78
2023/05/22 10:13:49;;;;;;;37.15;27.90;;;27.40;99.90;;;;;;5008338;28;20162;-79
2023/05/22 10:16:16;;;;;;;35.45;28.45;;;28.00;99.90;;;;;;5009900;28;20048;-79
2023/05/22 10:18:45;;;;;;;35.75;27.65;;;28.80;99.90;;;;;;5007596;28;20142;-80
2023/05/22 10:21:12;;;;;;;36.08;28.15;;;29.00;99.90;;;;;;5009073;28;20144;-80
2023/05/22 10:23:38;;;;;;;43.05;30.80;;;28.10;99.90;;;;;;4991945;28;20057;-80
2023/05/22 10:26:05;;;;;;;39.95;29.45;;;27.90;99.90;;;;;;5012009;28;20131;-78
2023/05/22 10:28:43;;;;;;;43.22;31.20;;;28.30;99.90;;;;;;5005173;28;20153;-82
2023/05/22 10:31:24;;;;;;;40.83;31.05;;;28.80;99.90;;;;;;5008698;28;20036;-79
2023/05/22 10:33:58;;;;;;;38.22;28.08;;;29.00;99.90;;;;;;5013085;28;20025;-82
2023/05/22 10:36:40;;;;;;;80.82;51.13;;;29.60;99.60;;;;;;5012427;28;20097;-77
2023/05/22 10:39:27;;;;;;;39.78;30.58;;;29.50;99.90;;;;;;5013544;28;20021;-79
2023/05/22 10:41:55;;;;;;;38.80;28.65;;;29.30;99.90;;;;;;5013021;28;20037;-82
2023/05/22 10:44:21;;;;;;;38.33;30.50;;;29.60;98.30;;;;;;4989007;28;20026;-80
2023/05/22 10:46:50;;;;;;;45.22;32.05;;;29.50;97.70;;;;;;4992859;28;20036;-79
2023/05/22 10:49:22;;;;;;;39.72;30.15;;;29.00;97.90;;;;;;5012131;28;20022;-80
2023/05/22 10:51:54;;;;;;;42.25;31.98;;;29.50;99.90;;;;;;5011731;28;20048;-79
2023/05/22 10:54:42;;;;;;;38.63;30.63;;;29.80;97.40;;;;;;4992471;28;20128;-79
2023/05/22 10:57:17;;;;;;;64.35;42.97;;;30.10;98.60;;;;;;5012361;28;20332;-79
2023/05/22 10:59:46;;;;;;;79.55;47.00;;;30.10;96.30;;;;;;5010470;28;20026;-82
2023/05/22 11:02:33;;;;;;;43.30;30.40;;;30.40;96.00;;;;;;4993242;28;20072;-81
2023/05/22 11:05:34;;;;;;;39.03;30.00;;;30.60;95.80;;;;;;5011795;28;20026;-82
2023/05/22 11:08:36;;;;;;;38.58;29.77;;;30.40;94.80;;;;;;4951180;28;20478;-82
2023/05/22 11:11:10;;;;;;;38.67;30.75;;;30.30;94.40;;;;;;4991470;28;21567;-79
2023/05/22 11:13:37;;;;;;;39.10;29.45;;;30.40;94.70;;;;;;5011606;28;20068;-83
2023/05/22 11:16:08;;;;;;;37.08;28.40;;;30.60;94.00;;;;;;4995336;28;20026;-81
2023/05/22 11:18:33;;;;;;;39.47;29.95;;;30.40;94.80;;;;;;5012282;28;20029;-81
2023/05/22 11:20:59;;;;;;;37.78;29.85;;;30.30;93.50;;;;;;5008527;28;20032;-80
2023/05/22 11:23:25;;;;;;;42.15;31.20;;;30.20;93.30;;;;;;5012316;28;20095;-81
2023/05/22 11:25:51;;;;;;;38.28;30.05;;;30.00;95.10;;;;;;4994398;28;20017;-81
2023/05/22 11:28:17;;;;;;;42.55;30.88;;;29.80;94.40;;;;;;4991600;28;20156;-81
2023/05/22 11:30:44;;;;;;;38.78;30.42;;;29.60;95.30;;;;;;5009967;28;20090;-80
2023/05/22 11:33:11;;;;;;;41.92;29.85;;;29.90;95.60;;;;;;4992591;28;20030;-82
2023/05/22 11:35:38;;;;;;;37.83;28.85;;;29.90;94.40;;;;;;4992048;28;20618;-81
2023/05/22 11:38:05;;;;;;;44.13;29.23;;;29.90;95.60;;;;;;5008101;28;20113;-81
2023/05/22 11:40:33;;;;;;;40.72;28.45;;;30.10;94.30;;;;;;4997668;28;20029;-82
2023/05/22 11:42:59;;;;;;;33.10;24.90;;;30.40;93.50;;;;;;5010799;28;20114;-80
2023/05/22 11:45:25;;;;;;;32.28;24.58;;;30.60;92.30;;;;;;5009728;28;20041;-82
2023/05/22 11:47:51;;;;;;;61.33;37.67;;;30.60;90.20;;;;;;5012423;28;20325;-79
2023/05/22 11:50:17;;;;;;;73.95;43.45;;;30.80;90.10;;;;;;4999345;28;20121;-82
2023/05/22 11:52:44;;;;;;;24.23;18.73;;;31.00;91.50;;;;;;5011645;28;20022;-81
2023/05/22 11:55:10;;;;;;;24.75;19.25;;;30.90;90.90;;;;;;5015057;28;20037;-84
2023/05/22 11:57:37;;;;;;;24.27;18.17;;;30.60;87.20;;;;;;5010374;28;20056;-82
2023/05/22 12:00:05;;;;;;;20.60;17.17;;;30.50;90.10;;;;;;4994413;28;20029;-82
2023/05/22 12:02:31;;;;;;;22.48;18.52;;;30.70;87.40;;;;;;5010707;28;20052;-82
2023/05/22 12:04:57;;;;;;;17.42;14.60;;;30.40;80.90;;;;;;5007696;28;20477;-80
2023/05/22 12:07:26;;;;;;;21.73;15.82;;;31.20;84.90;;;;;;4992644;28;20139;-81
2023/05/22 12:09:54;;;;;;;20.60;17.45;;;31.60;81.50;;;;;;5005479;28;20037;-82
2023/05/22 12:12:20;;;;;;;22.30;18.38;;;31.40;79.10;;;;;;5009832;28;20109;-80
2023/05/22 12:14:47;;;;;;;60.80;39.42;;;31.30;81.20;;;;;;4989731;28;20569;-82
2023/05/22 12:17:13;;;;;;;22.58;19.67;;;31.20;83.70;;;;;;4995099;28;20373;-82
2023/05/22 12:19:43;;;;;;;24.95;18.70;;;31.20;80.10;;;;;;5009170;28;20041;-82
2023/05/22 12:22:09;;;;;;;21.70;18.40;;;31.30;81.40;;;;;;4997989;28;20025;-80
2023/05/22 12:24:41;;;;;;;28.38;19.33;;;31.40;79.80;;;;;;5010363;28;20097;-83
2023/05/22 12:27:09;;;;;;;19.63;15.68;;;32.00;82.60;;;;;;5007590;28;20111;-82
2023/05/22 12:29:35;;;;;;;20.55;15.77;;;32.60;81.20;;;;;;4997857;28;20022;-81
2023/05/22 12:32:09;;;;;;;19.70;15.98;;;32.60;76.70;;;;;;4993329;28;20512;-80
2023/05/22 12:34:42;;;;;;;18.92;14.40;;;32.10;76.50;;;;;;5007314;28;20044;-82
2023/05/22 12:37:24;;;;;;;17.02;14.98;;;31.70;76.80;;;;;;5014694;28;20046;-81
2023/05/22 12:40:08;;;;;;;19.30;15.20;;;31.30;76.50;;;;;;5011289;28;20053;-81
2023/05/22 12:42:34;;;;;;;21.38;15.75;;;30.80;79.00;;;;;;4997515;28;20041;-81
2023/05/22 12:45:00;;;;;;;20.80;15.70;;;31.10;76.30;;;;;;5007720;28;20033;-81
2023/05/22 12:47:28;;;;;;;19.08;15.20;;;31.50;76.30;;;;;;5009876;28;20101;-82